sensor_id;sensor_type;location;lat;lon;timestamp;P1;durP1;ratioP1;P2;durP2;ratioP2
10657;SDS011;5377;43.276;26.930;2023-02-15T00:01:59;24.30;;;16.63;;
10657;SDS011;5377;43.276;26.930;2023-02-15T00:04:26;21.70;;;14.67;;
10657;SDS011;5377;43.276;26.930;2023-02-15T00:07:11;22.60;;;15.47;;
10657;SDS011;5377;43.276;26.930;2023-02-15T00:09:39;20.60;;;14.57;;
10657;SDS011;5377;43.276;26.930;2023-02-15T00:12:06;23.60;;;15.27;;
10657;SDS011;5377;43.276;26.930;2023-02-15T00:14:33;23.27;;;16.27;;
10657;SDS011;5377;43.276;26.930;2023-02-15T00:17:01;23.13;;;15.97;;
10657;SDS011;5377;43.276;26.930;2023-02-15T00:19:28;28.10;;;15.60;;
10657;SDS011;5377;43.276;26.930;2023-02-15T00:21:55;22.80;;;15.80;;
10657;SDS011;5377;43.276;26.930;2023-02-15T00:24:22;20.23;;;15.80;;
10657;SDS011;5377;43.276;26.930;2023-02-15T00:26:49;20.47;;;12.87;;
10657;SDS011;5377;43.276;26.930;2023-02-15T00:29:16;22.40;;;14.60;;
10657;SDS011;5377;43.276;26.930;2023-02-15T00:31:44;23.10;;;14.93;;
10657;SDS011;5377;43.276;26.930;2023-02-15T00:34:14;22.03;;;15.17;;
10657;SDS011;5377;43.276;26.930;2023-02-15T00:36:43;22.10;;;15.13;;
10657;SDS011;5377;43.276;26.930;2023-02-15T00:39:10;24.30;;;15.73;;
10657;SDS011;5377;43.276;26.930;2023-02-15T00:41:38;22.63;;;15.23;;
10657;SDS011;5377;43.276;26.930;2023-02-15T00:44:06;23.47;;;15.57;;
10657;SDS011;5377;43.276;26.930;2023-02-15T00:46:33;23.03;;;15.00;;
10657;SDS011;5377;43.276;26.930;2023-02-15T00:49:01;21.33;;;14.63;;
10657;SDS011;5377;43.276;26.930;2023-02-15T00:51:29;23.00;;;15.63;;
10657;SDS011;5377;43.276;26.930;2023-02-15T00:53:57;22.57;;;15.20;;
10657;SDS011;5377;43.276;26.930;2023-02-15T00:56:24;22.17;;;15.30;;
10657;SDS011;5377;43.276;26.930;2023-02-15T00:58:53;22.20;;;13.40;;
10657;SDS011;5377;43.276;26.930;2023-02-15T01:01:20;26.17;;;16.33;;
10657;SDS011;5377;43.276;26.930;2023-02-15T01:03:48;25.97;;;16.60;;
10657;SDS011;5377;43.276;26.930;2023-02-15T01:06:15;25.33;;;15.57;;
10657;SDS011;5377;43.276;26.930;2023-02-15T01:08:44;29.40;;;15.77;;
10657;SDS011;5377;43.276;26.930;2023-02-15T01:11:12;24.47;;;17.50;;
10657;SDS011;5377;43.276;26.930;2023-02-15T01:13:40;22.03;;;15.23;;
10657;SDS011;5377;43.276;26.930;2023-02-15T01:16:07;23.73;;;15.53;;
10657;SDS011;5377;43.276;26.930;2023-02-15T01:18:35;22.00;;;15.40;;
10657;SDS011;5377;43.276;26.930;2023-02-15T01:21:08;21.73;;;14.97;;
10657;SDS011;5377;43.276;26.930;2023-02-15T01:23:36;23.03;;;14.80;;
10657;SDS011;5377;43.276;26.930;2023-02-15T01:26:04;23.60;;;14.93;;
10657;SDS011;5377;43.276;26.930;2023-02-15T01:28:31;23.23;;;14.83;;
10657;SDS011;5377;43.276;26.930;2023-02-15T01:30:58;20.47;;;15.23;;
10657;SDS011;5377;43.276;26.930;2023-02-15T01:33:25;25.97;;;18.20;;
10657;SDS011;5377;43.276;26.930;2023-02-15T01:35:55;21.03;;;15.60;;
10657;SDS011;5377;43.276;26.930;2023-02-15T01:38:23;20.07;;;14.70;;
10657;SDS011;5377;43.276;26.930;2023-02-15T01:40:50;22.37;;;16.03;;
10657;SDS011;5377;43.276;26.930;2023-02-15T01:43:19;22.50;;;16.23;;
10657;SDS011;5377;43.276;26.930;2023-02-15T01:45:46;22.03;;;15.70;;
10657;SDS011;5377;43.276;26.930;2023-02-15T01:48:17;21.90;;;14.47;;
10657;SDS011;5377;43.276;26.930;2023-02-15T01:50:48;25.27;;;15.73;;
10657;SDS011;5377;43.276;26.930;2023-02-15T01:53:19;25.27;;;16.13;;
10657;SDS011;5377;43.276;26.930;2023-02-15T01:55:50;24.17;;;15.07;;
10657;SDS011;5377;43.276;26.930;2023-02-15T01:58:21;22.33;;;15.17;;
10657;SDS011;5377;43.276;26.930;2023-02-15T02:00:50;18.97;;;14.17;;
10657;SDS011;5377;43.276;26.930;2023-02-15T02:03:16;21.03;;;14.97;;
10657;SDS011;5377;43.276;26.930;2023-02-15T02:05:50;25.17;;;15.50;;
10657;SDS011;5377;43.276;26.930;2023-02-15T02:08:17;21.97;;;14.03;;
10657;SDS011;5377;43.276;26.930;2023-02-15T02:10:44;22.07;;;15.43;;
10657;SDS011;5377;43.276;26.930;2023-02-15T02:13:11;20.13;;;14.63;;
10657;SDS011;5377;43.276;26.930;2023-02-15T02:15:40;21.73;;;14.27;;
10657;SDS011;5377;43.276;26.930;2023-02-15T02:18:20;22.57;;;14.90;;
10657;SDS011;5377;43.276;26.930;2023-02-15T02:21:02;19.93;;;12.73;;
10657;SDS011;5377;43.276;26.930;2023-02-15T02:23:57;21.30;;;13.90;;
10657;SDS011;5377;43.276;26.930;2023-02-15T02:26:49;18.33;;;13.17;;
10657;SDS011;5377;43.276;26.930;2023-02-15T02:29:45;18.90;;;12.63;;
10657;SDS011;5377;43.276;26.930;2023-02-15T02:32:52;18.00;;;12.20;;
10657;SDS011;5377;43.276;26.930;2023-02-15T02:35:41;16.37;;;11.90;;
10657;SDS011;5377;43.276;26.930;2023-02-15T02:38:16;19.33;;;11.43;;
10657;SDS011;5377;43.276;26.930;2023-02-15T02:40:55;21.93;;;12.03;;
10657;SDS011;5377;43.276;26.930;2023-02-15T02:43:33;17.00;;;11.30;;
10657;SDS011;5377;43.276;26.930;2023-02-15T02:46:07;15.13;;;10.20;;
10657;SDS011;5377;43.276;26.930;2023-02-15T02:48:40;19.80;;;10.53;;
10657;SDS011;5377;43.276;26.930;2023-02-15T02:51:07;13.97;;;9.57;;
10657;SDS011;5377;43.276;26.930;2023-02-15T02:53:34;15.93;;;10.93;;
10657;SDS011;5377;43.276;26.930;2023-02-15T02:56:03;13.90;;;10.70;;
10657;SDS011;5377;43.276;26.930;2023-02-15T02:58:37;13.83;;;9.40;;
10657;SDS011;5377;43.276;26.930;2023-02-15T03:01:09;14.20;;;9.83;;
10657;SDS011;5377;43.276;26.930;2023-02-15T03:03:43;15.70;;;10.13;;
10657;SDS011;5377;43.276;26.930;2023-02-15T03:06:15;12.87;;;9.27;;
10657;SDS011;5377;43.276;26.930;2023-02-15T03:08:45;15.87;;;10.80;;
10657;SDS011;5377;43.276;26.930;2023-02-15T03:11:17;18.13;;;10.47;;
10657;SDS011;5377;43.276;26.930;2023-02-15T03:13:43;16.00;;;10.07;;
10657;SDS011;5377;43.276;26.930;2023-02-15T03:16:14;15.00;;;10.97;;
10657;SDS011;5377;43.276;26.930;2023-02-15T03:18:55;13.23;;;10.00;;
10657;SDS011;5377;43.276;26.930;2023-02-15T03:21:30;16.03;;;10.87;;
10657;SDS011;5377;43.276;26.930;2023-02-15T03:24:02;15.90;;;10.83;;
10657;SDS011;5377;43.276;26.930;2023-02-15T03:26:33;15.83;;;10.60;;
10657;SDS011;5377;43.276;26.930;2023-02-15T03:29:02;13.27;;;9.03;;
10657;SDS011;5377;43.276;26.930;2023-02-15T03:31:32;14.80;;;9.77;;
10657;SDS011;5377;43.276;26.930;2023-02-15T03:34:04;14.73;;;9.30;;
10657;SDS011;5377;43.276;26.930;2023-02-15T03:36:37;12.30;;;8.47;;
10657;SDS011;5377;43.276;26.930;2023-02-15T03:39:11;13.67;;;8.97;;
10657;SDS011;5377;43.276;26.930;2023-02-15T03:41:45;12.33;;;8.23;;
10657;SDS011;5377;43.276;26.930;2023-02-15T03:44:17;13.77;;;9.27;;
10657;SDS011;5377;43.276;26.930;2023-02-15T03:46:51;14.67;;;9.00;;
10657;SDS011;5377;43.276;26.930;2023-02-15T03:49:22;13.43;;;9.07;;
10657;SDS011;5377;43.276;26.930;2023-02-15T03:51:54;13.73;;;8.30;;
10657;SDS011;5377;43.276;26.930;2023-02-15T03:54:23;11.00;;;8.40;;
10657;SDS011;5377;43.276;26.930;2023-02-15T03:57:15;13.33;;;9.17;;
10657;SDS011;5377;43.276;26.930;2023-02-15T04:00:03;12.67;;;8.37;;
10657;SDS011;5377;43.276;26.930;2023-02-15T04:02:58;12.97;;;7.40;;
10657;SDS011;5377;43.276;26.930;2023-02-15T04:05:35;15.20;;;9.87;;
10657;SDS011;5377;43.276;26.930;2023-02-15T04:08:02;13.23;;;8.90;;
10657;SDS011;5377;43.276;26.930;2023-02-15T04:10:29;12.93;;;9.30;;
10657;SDS011;5377;43.276;26.930;2023-02-15T04:13:13;13.90;;;8.20;;
10657;SDS011;5377;43.276;26.930;2023-02-15T04:15:40;12.27;;;8.50;;
10657;SDS011;5377;43.276;26.930;2023-02-15T04:18:24;14.47;;;8.87;;
10657;SDS011;5377;43.276;26.930;2023-02-15T04:21:09;12.17;;;8.77;;
10657;SDS011;5377;43.276;26.930;2023-02-15T04:23:53;15.60;;;8.40;;
10657;SDS011;5377;43.276;26.930;2023-02-15T04:26:37;13.70;;;8.60;;
10657;SDS011;5377;43.276;26.930;2023-02-15T04:29:04;13.93;;;9.40;;
10657;SDS011;5377;43.276;26.930;2023-02-15T04:31:31;12.30;;;9.00;;
10657;SDS011;5377;43.276;26.930;2023-02-15T04:33:57;14.17;;;9.73;;
10657;SDS011;5377;43.276;26.930;2023-02-15T04:36:26;13.57;;;8.67;;
10657;SDS011;5377;43.276;26.930;2023-02-15T04:38:52;13.00;;;8.90;;
10657;SDS011;5377;43.276;26.930;2023-02-15T04:41:19;15.83;;;9.47;;
10657;SDS011;5377;43.276;26.930;2023-02-15T04:43:46;13.20;;;9.23;;
10657;SDS011;5377;43.276;26.930;2023-02-15T04:46:13;13.50;;;9.67;;
10657;SDS011;5377;43.276;26.930;2023-02-15T04:48:40;18.47;;;10.47;;
10657;SDS011;5377;43.276;26.930;2023-02-15T04:51:07;16.23;;;10.10;;
10657;SDS011;5377;43.276;26.930;2023-02-15T04:53:35;16.43;;;11.17;;
10657;SDS011;5377;43.276;26.930;2023-02-15T04:56:02;17.13;;;10.87;;
10657;SDS011;5377;43.276;26.930;2023-02-15T04:58:29;17.47;;;11.03;;
10657;SDS011;5377;43.276;26.930;2023-02-15T05:00:56;15.87;;;11.17;;
10657;SDS011;5377;43.276;26.930;2023-02-15T05:03:24;15.67;;;9.93;;
10657;SDS011;5377;43.276;26.930;2023-02-15T05:05:51;14.63;;;10.83;;
10657;SDS011;5377;43.276;26.930;2023-02-15T05:08:18;18.17;;;11.63;;
10657;SDS011;5377;43.276;26.930;2023-02-15T05:10:47;15.43;;;10.50;;
10657;SDS011;5377;43.276;26.930;2023-02-15T05:13:14;16.83;;;11.23;;
10657;SDS011;5377;43.276;26.930;2023-02-15T05:15:41;17.03;;;11.77;;
10657;SDS011;5377;43.276;26.930;2023-02-15T05:18:07;14.50;;;10.57;;
10657;SDS011;5377;43.276;26.930;2023-02-15T05:20:34;15.60;;;10.37;;
10657;SDS011;5377;43.276;26.930;2023-02-15T05:23:01;14.10;;;10.37;;
10657;SDS011;5377;43.276;26.930;2023-02-15T05:25:28;17.57;;;11.57;;
10657;SDS011;5377;43.276;26.930;2023-02-15T05:28:13;18.10;;;11.43;;
10657;SDS011;5377;43.276;26.930;2023-02-15T05:30:46;18.40;;;12.13;;
10657;SDS011;5377;43.276;26.930;2023-02-15T05:33:13;16.73;;;11.40;;
10657;SDS011;5377;43.276;26.930;2023-02-15T05:35:39;17.27;;;10.47;;
10657;SDS011;5377;43.276;26.930;2023-02-15T05:38:06;14.40;;;10.37;;
10657;SDS011;5377;43.276;26.930;2023-02-15T05:40:33;16.03;;;10.83;;
10657;SDS011;5377;43.276;26.930;2023-02-15T05:43:00;17.27;;;11.57;;
10657;SDS011;5377;43.276;26.930;2023-02-15T05:45:28;19.70;;;12.73;;
10657;SDS011;5377;43.276;26.930;2023-02-15T05:47:55;18.53;;;12.80;;
10657;SDS011;5377;43.276;26.930;2023-02-15T05:50:23;17.67;;;11.73;;
10657;SDS011;5377;43.276;26.930;2023-02-15T05:52:50;20.07;;;11.47;;
10657;SDS011;5377;43.276;26.930;2023-02-15T05:55:17;18.77;;;11.80;;
10657;SDS011;5377;43.276;26.930;2023-02-15T05:57:43;19.87;;;11.60;;
10657;SDS011;5377;43.276;26.930;2023-02-15T06:00:11;16.47;;;11.53;;
10657;SDS011;5377;43.276;26.930;2023-02-15T06:02:40;14.70;;;10.50;;
10657;SDS011;5377;43.276;26.930;2023-02-15T06:05:07;16.80;;;11.27;;
10657;SDS011;5377;43.276;26.930;2023-02-15T06:07:34;17.37;;;10.53;;
10657;SDS011;5377;43.276;26.930;2023-02-15T06:10:01;17.53;;;11.00;;
10657;SDS011;5377;43.276;26.930;2023-02-15T06:12:28;15.73;;;10.53;;
10657;SDS011;5377;43.276;26.930;2023-02-15T06:14:55;16.40;;;9.90;;
10657;SDS011;5377;43.276;26.930;2023-02-15T06:17:21;17.87;;;10.70;;
10657;SDS011;5377;43.276;26.930;2023-02-15T06:19:50;17.13;;;11.07;;
10657;SDS011;5377;43.276;26.930;2023-02-15T06:22:16;14.37;;;9.50;;
10657;SDS011;5377;43.276;26.930;2023-02-15T06:24:43;15.87;;;10.30;;
10657;SDS011;5377;43.276;26.930;2023-02-15T06:27:10;12.83;;;9.70;;
10657;SDS011;5377;43.276;26.930;2023-02-15T06:29:37;14.37;;;9.37;;
10657;SDS011;5377;43.276;26.930;2023-02-15T06:32:04;12.60;;;9.07;;
10657;SDS011;5377;43.276;26.930;2023-02-15T06:34:31;13.20;;;9.73;;
10657;SDS011;5377;43.276;26.930;2023-02-15T06:36:59;12.13;;;9.47;;
10657;SDS011;5377;43.276;26.930;2023-02-15T06:39:26;14.87;;;9.87;;
10657;SDS011;5377;43.276;26.930;2023-02-15T06:41:53;13.40;;;10.10;;
10657;SDS011;5377;43.276;26.930;2023-02-15T06:44:20;15.60;;;10.27;;
10657;SDS011;5377;43.276;26.930;2023-02-15T06:46:47;16.20;;;8.97;;
10657;SDS011;5377;43.276;26.930;2023-02-15T06:49:13;12.37;;;9.30;;
10657;SDS011;5377;43.276;26.930;2023-02-15T06:51:40;16.57;;;9.93;;
10657;SDS011;5377;43.276;26.930;2023-02-15T06:54:11;15.07;;;9.67;;
10657;SDS011;5377;43.276;26.930;2023-02-15T06:56:38;18.97;;;12.97;;
10657;SDS011;5377;43.276;26.930;2023-02-15T06:59:04;13.43;;;10.13;;
10657;SDS011;5377;43.276;26.930;2023-02-15T07:01:31;17.07;;;10.63;;
10657;SDS011;5377;43.276;26.930;2023-02-15T07:03:58;12.67;;;10.07;;
10657;SDS011;5377;43.276;26.930;2023-02-15T07:06:25;15.47;;;9.40;;
10657;SDS011;5377;43.276;26.930;2023-02-15T07:08:52;18.13;;;10.70;;
10657;SDS011;5377;43.276;26.930;2023-02-15T07:11:20;19.47;;;10.13;;
10657;SDS011;5377;43.276;26.930;2023-02-15T07:14:04;17.50;;;10.70;;
10657;SDS011;5377;43.276;26.930;2023-02-15T07:16:31;16.37;;;9.33;;
10657;SDS011;5377;43.276;26.930;2023-02-15T07:18:58;14.93;;;10.87;;
10657;SDS011;5377;43.276;26.930;2023-02-15T07:21:25;17.87;;;11.07;;
10657;SDS011;5377;43.276;26.930;2023-02-15T07:23:51;16.30;;;11.10;;
10657;SDS011;5377;43.276;26.930;2023-02-15T07:26:20;15.53;;;12.43;;
10657;SDS011;5377;43.276;26.930;2023-02-15T07:28:46;17.03;;;11.63;;
10657;SDS011;5377;43.276;26.930;2023-02-15T07:31:14;21.50;;;12.30;;
10657;SDS011;5377;43.276;26.930;2023-02-15T07:33:40;16.27;;;11.57;;
10657;SDS011;5377;43.276;26.930;2023-02-15T07:36:08;16.33;;;11.43;;
10657;SDS011;5377;43.276;26.930;2023-02-15T07:38:37;14.67;;;11.13;;
10657;SDS011;5377;43.276;26.930;2023-02-15T07:41:06;16.07;;;11.40;;
10657;SDS011;5377;43.276;26.930;2023-02-15T07:43:37;17.30;;;11.40;;
10657;SDS011;5377;43.276;26.930;2023-02-15T07:46:06;13.27;;;9.80;;
10657;SDS011;5377;43.276;26.930;2023-02-15T07:48:34;13.87;;;11.20;;
10657;SDS011;5377;43.276;26.930;2023-02-15T07:51:01;14.73;;;12.13;;
10657;SDS011;5377;43.276;26.930;2023-02-15T07:53:30;22.40;;;12.73;;
10657;SDS011;5377;43.276;26.930;2023-02-15T07:55:58;20.03;;;10.67;;
10657;SDS011;5377;43.276;26.930;2023-02-15T07:58:25;18.07;;;12.10;;
10657;SDS011;5377;43.276;26.930;2023-02-15T08:01:13;23.88;;;13.15;;
10657;SDS011;5377;43.276;26.930;2023-02-15T08:03:40;25.98;;;13.60;;
10657;SDS011;5377;43.276;26.930;2023-02-15T08:06:07;18.80;;;11.67;;
10657;SDS011;5377;43.276;26.930;2023-02-15T08:08:34;13.77;;;10.53;;
10657;SDS011;5377;43.276;26.930;2023-02-15T08:11:03;14.13;;;11.30;;
10657;SDS011;5377;43.276;26.930;2023-02-15T08:13:54;12.68;;;8.98;;
10657;SDS011;5377;43.276;26.930;2023-02-15T08:16:25;15.13;;;9.20;;
10657;SDS011;5377;43.276;26.930;2023-02-15T08:18:54;14.35;;;10.40;;
10657;SDS011;5377;43.276;26.930;2023-02-15T08:21:22;16.52;;;11.98;;
10657;SDS011;5377;43.276;26.930;2023-02-15T08:23:52;18.15;;;11.50;;
10657;SDS011;5377;43.276;26.930;2023-02-15T08:26:19;18.02;;;12.00;;
10657;SDS011;5377;43.276;26.930;2023-02-15T08:28:46;16.50;;;10.88;;
10657;SDS011;5377;43.276;26.930;2023-02-15T08:31:14;18.27;;;13.85;;
10657;SDS011;5377;43.276;26.930;2023-02-15T08:33:43;18.05;;;11.07;;
10657;SDS011;5377;43.276;26.930;2023-02-15T08:36:12;15.80;;;11.10;;
10657;SDS011;5377;43.276;26.930;2023-02-15T08:38:40;15.27;;;11.10;;
10657;SDS011;5377;43.276;26.930;2023-02-15T08:41:11;12.63;;;10.32;;
10657;SDS011;5377;43.276;26.930;2023-02-15T08:43:40;12.48;;;10.25;;
10657;SDS011;5377;43.276;26.930;2023-02-15T08:46:07;22.60;;;10.38;;
10657;SDS011;5377;43.276;26.930;2023-02-15T08:48:35;11.98;;;10.30;;
10657;SDS011;5377;43.276;26.930;2023-02-15T08:51:07;17.95;;;9.55;;
10657;SDS011;5377;43.276;26.930;2023-02-15T08:53:37;21.05;;;10.95;;
10657;SDS011;5377;43.276;26.930;2023-02-15T08:56:04;14.55;;;10.48;;
10657;SDS011;5377;43.276;26.930;2023-02-15T08:58:32;12.40;;;11.13;;
10657;SDS011;5377;43.276;26.930;2023-02-15T09:00:59;20.27;;;13.13;;
10657;SDS011;5377;43.276;26.930;2023-02-15T09:03:27;16.08;;;11.75;;
10657;SDS011;5377;43.276;26.930;2023-02-15T09:05:56;15.55;;;12.23;;
10657;SDS011;5377;43.276;26.930;2023-02-15T09:08:26;16.58;;;12.32;;
10657;SDS011;5377;43.276;26.930;2023-02-15T09:10:53;11.68;;;9.63;;
10657;SDS011;5377;43.276;26.930;2023-02-15T09:13:20;25.13;;;13.13;;
10657;SDS011;5377;43.276;26.930;2023-02-15T09:15:47;20.48;;;13.27;;
10657;SDS011;5377;43.276;26.930;2023-02-15T09:18:14;20.30;;;14.05;;
10657;SDS011;5377;43.276;26.930;2023-02-15T09:20:42;20.20;;;14.55;;
10657;SDS011;5377;43.276;26.930;2023-02-15T09:23:10;18.75;;;13.20;;
10657;SDS011;5377;43.276;26.930;2023-02-15T09:25:38;13.73;;;12.02;;
10657;SDS011;5377;43.276;26.930;2023-02-15T09:28:05;23.42;;;11.93;;
10657;SDS011;5377;43.276;26.930;2023-02-15T09:30:33;15.77;;;13.18;;
10657;SDS011;5377;43.276;26.930;2023-02-15T09:32:59;14.60;;;11.88;;
10657;SDS011;5377;43.276;26.930;2023-02-15T09:35:26;21.23;;;14.43;;
10657;SDS011;5377;43.276;26.930;2023-02-15T09:37:53;20.50;;;14.15;;
10657;SDS011;5377;43.276;26.930;2023-02-15T09:40:20;16.17;;;13.50;;
10657;SDS011;5377;43.276;26.930;2023-02-15T09:48:41;16.92;;;13.70;;
10657;SDS011;5377;43.276;26.930;2023-02-15T09:54:23;12.57;;;10.10;;
10657;SDS011;5377;43.276;26.930;2023-02-15T09:57:00;16.00;;;10.60;;
10657;SDS011;5377;43.276;26.930;2023-02-15T09:59:39;14.32;;;12.50;;
10657;SDS011;5377;43.276;26.930;2023-02-15T10:02:20;16.52;;;11.23;;
10657;SDS011;5377;43.276;26.930;2023-02-15T10:05:04;14.75;;;11.30;;
10657;SDS011;5377;43.276;26.930;2023-02-15T10:10:45;13.25;;;11.05;;
10657;SDS011;5377;43.276;26.930;2023-02-15T10:13:22;12.93;;;11.60;;
10657;SDS011;5377;43.276;26.930;2023-02-15T10:16:04;12.35;;;10.85;;
10657;SDS011;5377;43.276;26.930;2023-02-15T10:18:41;15.98;;;11.35;;
10657;SDS011;5377;43.276;26.930;2023-02-15T10:21:27;12.27;;;9.57;;
10657;SDS011;5377;43.276;26.930;2023-02-15T10:24:18;15.63;;;10.77;;
10657;SDS011;5377;43.276;26.930;2023-02-15T10:26:58;13.25;;;10.90;;
10657;SDS011;5377;43.276;26.930;2023-02-15T10:29:35;15.90;;;10.70;;
10657;SDS011;5377;43.276;26.930;2023-02-15T10:32:09;15.75;;;10.48;;
10657;SDS011;5377;43.276;26.930;2023-02-15T10:34:43;19.23;;;12.98;;
10657;SDS011;5377;43.276;26.930;2023-02-15T10:37:20;21.52;;;12.27;;
10657;SDS011;5377;43.276;26.930;2023-02-15T10:40:08;23.77;;;13.57;;
10657;SDS011;5377;43.276;26.930;2023-02-15T10:42:45;14.88;;;11.73;;
10657;SDS011;5377;43.276;26.930;2023-02-15T10:45:27;14.68;;;12.63;;
10657;SDS011;5377;43.276;26.930;2023-02-15T10:50:54;16.75;;;13.23;;
10657;SDS011;5377;43.276;26.930;2023-02-15T10:53:30;16.83;;;11.75;;
10657;SDS011;5377;43.276;26.930;2023-02-15T10:56:19;15.95;;;12.20;;
10657;SDS011;5377;43.276;26.930;2023-02-15T10:58:56;15.10;;;12.45;;
10657;SDS011;5377;43.276;26.930;2023-02-15T11:01:41;14.45;;;12.55;;
10657;SDS011;5377;43.276;26.930;2023-02-15T11:07:17;11.32;;;9.80;;
10657;SDS011;5377;43.276;26.930;2023-02-15T11:09:49;11.25;;;10.10;;
10657;SDS011;5377;43.276;26.930;2023-02-15T11:12:21;11.77;;;10.57;;
10657;SDS011;5377;43.276;26.930;2023-02-15T11:14:51;17.38;;;12.30;;
10657;SDS011;5377;43.276;26.930;2023-02-15T11:17:24;11.73;;;10.52;;
10657;SDS011;5377;43.276;26.930;2023-02-15T11:19:58;17.17;;;10.93;;
10657;SDS011;5377;43.276;26.930;2023-02-15T11:22:32;12.02;;;9.68;;
10657;SDS011;5377;43.276;26.930;2023-02-15T11:25:00;10.48;;;9.35;;
10657;SDS011;5377;43.276;26.930;2023-02-15T11:27:29;10.68;;;9.57;;
10657;SDS011;5377;43.276;26.930;2023-02-15T11:29:59;12.55;;;9.98;;
10657;SDS011;5377;43.276;26.930;2023-02-15T11:32:30;11.85;;;9.77;;
10657;SDS011;5377;43.276;26.930;2023-02-15T11:35:01;15.52;;;11.25;;
10657;SDS011;5377;43.276;26.930;2023-02-15T11:37:33;11.52;;;10.43;;
10657;SDS011;5377;43.276;26.930;2023-02-15T11:40:23;11.48;;;10.23;;
10657;SDS011;5377;43.276;26.930;2023-02-15T11:42:53;17.58;;;12.95;;
10657;SDS011;5377;43.276;26.930;2023-02-15T11:45:25;12.55;;;11.07;;
10657;SDS011;5377;43.276;26.930;2023-02-15T11:47:53;13.18;;;11.77;;
10657;SDS011;5377;43.276;26.930;2023-02-15T11:50:23;14.85;;;11.88;;
10657;SDS011;5377;43.276;26.930;2023-02-15T11:52:52;11.23;;;10.13;;
10657;SDS011;5377;43.276;26.930;2023-02-15T11:55:21;13.88;;;10.90;;
10657;SDS011;5377;43.276;26.930;2023-02-15T11:57:50;11.82;;;10.52;;
10657;SDS011;5377;43.276;26.930;2023-02-15T12:00:25;11.25;;;10.02;;
10657;SDS011;5377;43.276;26.930;2023-02-15T12:03:01;11.75;;;10.38;;
10657;SDS011;5377;43.276;26.930;2023-02-15T12:05:35;13.25;;;11.02;;
10657;SDS011;5377;43.276;26.930;2023-02-15T12:08:09;13.38;;;9.88;;
10657;SDS011;5377;43.276;26.930;2023-02-15T12:10:42;10.88;;;9.73;;
10657;SDS011;5377;43.276;26.930;2023-02-15T12:13:18;15.25;;;11.02;;
10657;SDS011;5377;43.276;26.930;2023-02-15T12:15:47;13.65;;;11.18;;
10657;SDS011;5377;43.276;26.930;2023-02-15T12:18:20;11.63;;;10.43;;
10657;SDS011;5377;43.276;26.930;2023-02-15T12:20:59;13.57;;;11.23;;
10657;SDS011;5377;43.276;26.930;2023-02-15T12:23:29;17.08;;;12.77;;
10657;SDS011;5377;43.276;26.930;2023-02-15T12:25:58;16.75;;;12.05;;
10657;SDS011;5377;43.276;26.930;2023-02-15T12:28:26;14.95;;;10.90;;
10657;SDS011;5377;43.276;26.930;2023-02-15T12:30:58;17.83;;;12.93;;
10657;SDS011;5377;43.276;26.930;2023-02-15T12:33:28;15.68;;;10.43;;
10657;SDS011;5377;43.276;26.930;2023-02-15T12:35:57;14.52;;;11.30;;
10657;SDS011;5377;43.276;26.930;2023-02-15T12:38:29;12.82;;;9.95;;
10657;SDS011;5377;43.276;26.930;2023-02-15T12:40:57;12.15;;;9.90;;
10657;SDS011;5377;43.276;26.930;2023-02-15T12:43:26;10.88;;;9.60;;
10657;SDS011;5377;43.276;26.930;2023-02-15T12:45:53;12.55;;;10.80;;
10657;SDS011;5377;43.276;26.930;2023-02-15T12:48:40;12.23;;;10.63;;
10657;SDS011;5377;43.276;26.930;2023-02-15T12:51:12;12.07;;;10.82;;
10657;SDS011;5377;43.276;26.930;2023-02-15T12:53:41;12.20;;;10.45;;
10657;SDS011;5377;43.276;26.930;2023-02-15T12:56:08;10.82;;;9.73;;
10657;SDS011;5377;43.276;26.930;2023-02-15T12:58:36;11.55;;;10.32;;
10657;SDS011;5377;43.276;26.930;2023-02-15T13:01:10;10.52;;;8.90;;
10657;SDS011;5377;43.276;26.930;2023-02-15T13:03:54;12.00;;;9.60;;
10657;SDS011;5377;43.276;26.930;2023-02-15T13:06:25;13.15;;;10.40;;
10657;SDS011;5377;43.276;26.930;2023-02-15T13:08:54;13.32;;;10.82;;
10657;SDS011;5377;43.276;26.930;2023-02-15T13:11:25;11.48;;;10.27;;
10657;SDS011;5377;43.276;26.930;2023-02-15T13:13:55;15.00;;;11.63;;
10657;SDS011;5377;43.276;26.930;2023-02-15T13:16:26;18.25;;;12.68;;
10657;SDS011;5377;43.276;26.930;2023-02-15T13:18:57;16.55;;;12.18;;
10657;SDS011;5377;43.276;26.930;2023-02-15T13:21:31;15.13;;;11.27;;
10657;SDS011;5377;43.276;26.930;2023-02-15T13:24:04;13.05;;;10.38;;
10657;SDS011;5377;43.276;26.930;2023-02-15T13:26:34;12.30;;;10.57;;
10657;SDS011;5377;43.276;26.930;2023-02-15T13:29:04;14.40;;;10.77;;
10657;SDS011;5377;43.276;26.930;2023-02-15T13:31:34;13.80;;;11.27;;
10657;SDS011;5377;43.276;26.930;2023-02-15T13:34:03;11.55;;;9.57;;
10657;SDS011;5377;43.276;26.930;2023-02-15T13:36:41;14.35;;;9.88;;
10657;SDS011;5377;43.276;26.930;2023-02-15T13:39:20;14.88;;;9.60;;
10657;SDS011;5377;43.276;26.930;2023-02-15T13:41:56;19.65;;;10.45;;
10657;SDS011;5377;43.276;26.930;2023-02-15T13:47:35;11.87;;;10.17;;
10657;SDS011;5377;43.276;26.930;2023-02-15T13:50:17;13.90;;;10.40;;
10657;SDS011;5377;43.276;26.930;2023-02-15T13:53:02;12.85;;;10.35;;
10657;SDS011;5377;43.276;26.930;2023-02-15T13:55:46;18.52;;;13.90;;
10657;SDS011;5377;43.276;26.930;2023-02-15T13:58:27;18.73;;;14.82;;
10657;SDS011;5377;43.276;26.930;2023-02-15T14:01:09;21.92;;;15.73;;
10657;SDS011;5377;43.276;26.930;2023-02-15T14:03:53;12.77;;;9.73;;
10657;SDS011;5377;43.276;26.930;2023-02-15T14:06:53;10.98;;;8.20;;
10657;SDS011;5377;43.276;26.930;2023-02-15T14:09:36;10.43;;;9.13;;
10657;SDS011;5377;43.276;26.930;2023-02-15T14:12:23;17.55;;;13.63;;
10657;SDS011;5377;43.276;26.930;2023-02-15T14:18:01;11.48;;;9.18;;
10657;SDS011;5377;43.276;26.930;2023-02-15T14:20:45;11.73;;;9.23;;
10657;SDS011;5377;43.276;26.930;2023-02-15T14:23:23;10.15;;;8.23;;
10657;SDS011;5377;43.276;26.930;2023-02-15T14:26:02;9.13;;;8.23;;
10657;SDS011;5377;43.276;26.930;2023-02-15T14:28:37;8.98;;;8.07;;
10657;SDS011;5377;43.276;26.930;2023-02-15T14:31:10;11.75;;;9.52;;
10657;SDS011;5377;43.276;26.930;2023-02-15T14:33:39;11.35;;;10.25;;
10657;SDS011;5377;43.276;26.930;2023-02-15T14:36:08;10.85;;;9.52;;
10657;SDS011;5377;43.276;26.930;2023-02-15T14:38:47;10.45;;;9.35;;
10657;SDS011;5377;43.276;26.930;2023-02-15T14:41:29;17.23;;;12.13;;
10657;SDS011;5377;43.276;26.930;2023-02-15T14:44:04;14.27;;;10.52;;
10657;SDS011;5377;43.276;26.930;2023-02-15T14:46:37;15.38;;;10.07;;
10657;SDS011;5377;43.276;26.930;2023-02-15T14:49:10;17.58;;;12.68;;
10657;SDS011;5377;43.276;26.930;2023-02-15T14:57:25;22.02;;;13.10;;
10657;SDS011;5377;43.276;26.930;2023-02-15T15:03:03;15.93;;;13.02;;
10657;SDS011;5377;43.276;26.930;2023-02-15T15:05:45;19.88;;;14.57;;
10657;SDS011;5377;43.276;26.930;2023-02-15T15:08:21;26.45;;;16.67;;
10657;SDS011;5377;43.276;26.930;2023-02-15T15:10:52;23.15;;;11.93;;
10657;SDS011;5377;43.276;26.930;2023-02-15T15:13:40;18.25;;;12.60;;
10657;SDS011;5377;43.276;26.930;2023-02-15T15:22:29;18.15;;;13.25;;
10657;SDS011;5377;43.276;26.930;2023-02-15T15:24:57;18.88;;;14.00;;
10657;SDS011;5377;43.276;26.930;2023-02-15T15:27:41;22.42;;;14.48;;
10657;SDS011;5377;43.276;26.930;2023-02-15T15:33:22;19.77;;;14.80;;